createdAt,value
2022-11-19T00:01:22.269Z,83.91
2022-11-19T00:03:52.637Z,83.55
2022-11-19T00:06:22.676Z,83.18
2022-11-19T00:08:50.114Z,83.02
2022-11-19T00:11:40.391Z,82.61
2022-11-19T00:14:07.807Z,84.26
2022-11-19T00:16:35.379Z,83.13
2022-11-19T00:19:02.325Z,82.71
2022-11-19T00:21:29.174Z,82.24
2022-11-19T00:23:56.381Z,82.12
2022-11-19T00:26:23.910Z,82.08
2022-11-19T00:28:50.777Z,82.08
2022-11-19T00:31:18.355Z,82.25
2022-11-19T00:33:46.271Z,82.44
2022-11-19T00:36:15.517Z,82.56
2022-11-19T00:38:43.407Z,82.78
2022-11-19T00:41:10.565Z,82.85
2022-11-19T00:43:52.461Z,83.22
2022-11-19T00:46:25.121Z,83.22
2022-11-19T00:48:53.923Z,83.13
2022-11-19T00:51:22.271Z,83.45
2022-11-19T00:53:49.152Z,83.79
2022-11-19T00:56:19.826Z,83.83
2022-11-19T00:58:48.096Z,83.92
2022-11-19T01:01:16.221Z,84.04
2022-11-19T01:03:45.760Z,84.12
2022-11-19T01:06:18.828Z,84.47
2022-11-19T01:08:47.621Z,84.51
2022-11-19T01:11:20.574Z,84.13
2022-11-19T01:13:47.422Z,84.00
2022-11-19T01:16:17.962Z,83.68
2022-11-19T01:18:47.010Z,83.91
2022-11-19T01:21:14.320Z,83.92
2022-11-19T01:23:42.253Z,83.80
2022-11-19T01:26:10.189Z,83.82
2022-11-19T01:28:38.233Z,83.86
2022-11-19T01:31:16.919Z,83.97
2022-11-19T01:33:44.238Z,84.22
2022-11-19T01:36:14.108Z,84.06
2022-11-19T01:38:41.110Z,84.32
2022-11-19T01:41:08.440Z,84.30
2022-11-19T01:43:50.332Z,84.26
2022-11-19T01:46:22.530Z,84.26
2022-11-19T01:49:01.084Z,84.33
2022-11-19T01:51:59.037Z,84.42
2022-11-19T01:54:41.373Z,84.28
2022-11-19T01:57:11.564Z,84.22
2022-11-19T01:59:38.859Z,85.61
2022-11-19T02:02:06.111Z,84.88
2022-11-19T02:04:34.306Z,84.73
2022-11-19T02:07:02.341Z,84.78
2022-11-19T02:09:29.788Z,84.81
2022-11-19T02:12:05.514Z,84.66
2022-11-19T02:14:41.324Z,85.02
2022-11-19T02:17:55.303Z,85.07
2022-11-19T02:20:56.470Z,85.21
2022-11-19T02:23:51.019Z,85.36
2022-11-19T02:27:03.151Z,85.48
2022-11-19T02:29:29.797Z,85.48
2022-11-19T02:32:26.138Z,85.47
2022-11-19T02:35:06.484Z,85.19
2022-11-19T02:37:43.557Z,85.03
2022-11-19T02:40:22.190Z,84.92
2022-11-19T02:42:48.977Z,84.97
2022-11-19T02:46:00.204Z,85.19
2022-11-19T02:48:50.047Z,85.07
2022-11-19T02:51:18.654Z,84.72
2022-11-19T02:53:48.318Z,83.97
2022-11-19T02:56:36.161Z,83.77
2022-11-19T02:59:22.820Z,83.44
2022-11-19T03:02:09.324Z,83.31
2022-11-19T03:04:36.123Z,83.10
2022-11-19T03:07:11.017Z,82.93
2022-11-19T03:09:46.283Z,82.62
2022-11-19T03:12:31.119Z,82.72
2022-11-19T03:15:22.828Z,82.55
2022-11-19T03:18:01.508Z,82.69
2022-11-19T03:20:36.924Z,82.72
2022-11-19T03:23:21.655Z,82.87
2022-11-19T03:25:58.837Z,83.18
2022-11-19T03:28:33.048Z,83.42
2022-11-19T03:31:01.132Z,83.50
2022-11-19T03:33:41.083Z,83.53
2022-11-19T03:36:12.558Z,83.46
2022-11-19T03:38:44.571Z,83.58
2022-11-19T03:41:15.268Z,83.90
2022-11-19T03:43:46.604Z,84.06
2022-11-19T03:46:18.482Z,84.55
2022-11-19T03:48:48.314Z,84.91
2022-11-19T03:51:25.970Z,84.97
2022-11-19T03:53:53.391Z,85.38
2022-11-19T03:56:24.027Z,85.18
2022-11-19T03:58:53.699Z,85.40
2022-11-19T04:01:20.997Z,85.65
2022-11-19T04:04:07.931Z,85.44
2022-11-19T04:06:34.692Z,85.64
2022-11-19T04:09:01.408Z,85.54
2022-11-19T04:13:53.767Z,85.70
2022-11-19T04:16:20.459Z,85.53
2022-11-19T04:18:47.308Z,85.54
2022-11-19T04:21:14.018Z,85.46
2022-11-19T04:23:40.698Z,85.44
2022-11-19T04:26:07.460Z,85.37
2022-11-19T04:28:34.176Z,85.55
2022-11-19T04:31:00.899Z,85.29
2022-11-19T04:33:27.693Z,85.20
2022-11-19T04:35:54.404Z,84.91
2022-11-19T04:38:21.129Z,84.45
2022-11-19T04:40:47.920Z,84.18
2022-11-19T04:43:14.680Z,83.43
2022-11-19T04:45:41.365Z,83.31
2022-11-19T04:48:08.156Z,82.79
2022-11-19T04:50:34.967Z,82.70
2022-11-19T04:53:01.742Z,82.52
2022-11-19T04:55:28.624Z,82.72
2022-11-19T04:57:55.409Z,82.74
2022-11-19T05:00:23.211Z,82.76
2022-11-19T05:02:49.929Z,83.05
2022-11-19T05:05:16.870Z,83.20
2022-11-19T05:07:43.555Z,83.56
2022-11-19T05:10:10.615Z,84.19
2022-11-19T05:12:37.404Z,84.13
2022-11-19T05:15:04.641Z,84.49
2022-11-19T05:17:31.344Z,84.84
2022-11-19T05:20:00.148Z,84.73
2022-11-19T05:22:26.967Z,85.06
2022-11-19T05:24:53.666Z,85.40
2022-11-19T05:27:20.403Z,85.80
2022-11-19T05:29:47.083Z,85.79
2022-11-19T05:32:13.834Z,85.98
2022-11-19T05:34:40.687Z,86.28
2022-11-19T05:37:07.391Z,86.66
2022-11-19T05:39:34.244Z,86.96
2022-11-19T05:42:01.335Z,86.62
2022-11-19T05:44:28.017Z,86.49
2022-11-19T05:46:57.844Z,86.38
2022-11-19T05:49:24.646Z,86.76
2022-11-19T05:51:51.356Z,86.90
2022-11-19T05:54:18.229Z,87.22
2022-11-19T05:56:45.103Z,87.31
2022-11-19T05:59:11.847Z,87.37
2022-11-19T06:01:38.592Z,87.61
2022-11-19T06:04:05.448Z,87.67
2022-11-19T06:06:32.144Z,87.76
2022-11-19T06:08:58.879Z,87.84
2022-11-19T06:11:44.111Z,87.93
2022-11-19T06:14:10.802Z,87.98
2022-11-19T06:16:37.530Z,87.93
2022-11-19T06:19:04.324Z,87.66
2022-11-19T06:21:31.282Z,87.50
2022-11-19T06:23:58.025Z,87.70
2022-11-19T06:26:26.697Z,87.79
2022-11-19T06:28:53.833Z,87.73
2022-11-19T06:31:20.969Z,87.51
2022-11-19T06:33:48.481Z,87.48
2022-11-19T06:36:15.486Z,87.52
2022-11-19T06:38:42.217Z,87.59
2022-11-19T06:41:09.047Z,87.53
2022-11-19T06:43:35.819Z,87.37
2022-11-19T06:46:02.508Z,87.53
2022-11-19T06:48:29.375Z,87.14
2022-11-19T06:50:56.778Z,87.48
2022-11-19T06:53:23.550Z,87.31
2022-11-19T06:55:59.351Z,87.29
2022-11-19T06:58:26.374Z,87.49
2022-11-19T07:00:53.079Z,87.61
2022-11-19T07:03:20.365Z,87.31
2022-11-19T07:05:48.386Z,87.33
2022-11-19T07:08:16.168Z,87.47
2022-11-19T07:10:43.824Z,87.53
2022-11-19T07:13:10.589Z,87.61
2022-11-19T07:15:37.804Z,87.85
2022-11-19T07:18:04.797Z,88.10
2022-11-19T07:20:31.815Z,88.16
2022-11-19T07:22:59.551Z,88.22
2022-11-19T07:25:27.394Z,88.23
2022-11-19T07:27:54.444Z,88.03
2022-11-19T07:30:21.130Z,88.04
2022-11-19T07:32:47.921Z,88.33
2022-11-19T07:35:14.712Z,88.34
2022-11-19T07:37:41.454Z,88.22
2022-11-19T07:40:11.370Z,88.54
2022-11-19T07:42:53.047Z,88.66
2022-11-19T07:45:22.381Z,88.68
2022-11-19T07:47:49.118Z,88.69
2022-11-19T07:50:17.299Z,88.60
2022-11-19T07:52:44.278Z,88.41
2022-11-19T07:55:11.182Z,88.61
2022-11-19T07:57:38.171Z,88.36
2022-11-19T08:00:06.612Z,88.57
2022-11-19T08:02:33.460Z,88.36
2022-11-19T08:05:00.168Z,87.58
2022-11-19T08:07:27.133Z,87.26
2022-11-19T08:09:53.905Z,87.09
2022-11-19T08:12:20.620Z,87.21
2022-11-19T08:14:47.459Z,87.50
2022-11-19T08:17:32.584Z,87.37
2022-11-19T08:19:59.520Z,87.63
2022-11-19T08:22:26.294Z,87.76
2022-11-19T08:24:52.997Z,87.59
2022-11-19T08:27:19.854Z,87.75
2022-11-19T08:29:46.698Z,87.45
2022-11-19T08:32:13.519Z,87.42
2022-11-19T08:34:40.324Z,87.54
2022-11-19T08:37:07.256Z,87.34
2022-11-19T08:39:34.026Z,87.35
2022-11-19T08:42:19.652Z,87.43
2022-11-19T08:44:46.550Z,87.24
2022-11-19T08:47:13.284Z,86.98
2022-11-19T08:49:40.112Z,86.97
2022-11-19T08:52:06.906Z,86.90
2022-11-19T08:54:33.625Z,86.92
2022-11-19T08:57:00.466Z,87.03
2022-11-19T08:59:27.188Z,87.22
2022-11-19T09:01:53.888Z,87.26
2022-11-19T09:04:20.953Z,87.55
2022-11-19T09:06:47.910Z,87.62
2022-11-19T09:09:14.591Z,88.10
2022-11-19T09:11:43.060Z,87.85
2022-11-19T09:14:10.500Z,88.23
2022-11-19T09:16:37.234Z,88.51
2022-11-19T09:19:04.149Z,87.61
2022-11-19T09:21:30.888Z,87.87
2022-11-19T09:23:57.592Z,87.88
2022-11-19T09:26:24.438Z,88.42
2022-11-19T09:28:51.193Z,87.97
2022-11-19T09:31:20.012Z,87.17
2022-11-19T09:33:49.271Z,86.08
2022-11-19T09:36:17.774Z,86.76
2022-11-19T09:38:44.630Z,86.78
2022-11-19T09:41:29.301Z,87.43
2022-11-19T09:44:26.775Z,87.51
2022-11-19T09:47:02.897Z,87.70
2022-11-19T09:50:00.722Z,85.27
2022-11-19T09:52:33.974Z,84.95
2022-11-19T09:55:02.021Z,84.74
2022-11-19T09:57:39.685Z,84.93
2022-11-19T10:00:08.576Z,85.03
2022-11-19T10:02:35.431Z,85.04
2022-11-19T10:05:03.388Z,85.05
2022-11-19T10:07:44.917Z,85.02
2022-11-19T10:10:20.898Z,84.37
2022-11-19T10:13:15.441Z,83.87
2022-11-19T10:15:48.349Z,84.63
2022-11-19T10:18:21.163Z,85.02
2022-11-19T10:21:00.578Z,85.07
2022-11-19T10:23:42.803Z,84.75
2022-11-19T10:26:16.271Z,84.42
2022-11-19T10:28:51.785Z,83.55
2022-11-19T10:31:36.940Z,83.00
2022-11-19T10:34:28.443Z,82.26
2022-11-19T10:37:00.329Z,81.54
2022-11-19T10:39:37.302Z,81.63
2022-11-19T10:42:28.915Z,81.80
2022-11-19T10:45:13.676Z,82.33
2022-11-19T10:47:53.337Z,82.04
2022-11-19T10:50:22.967Z,83.47
2022-11-19T10:53:17.525Z,82.40
2022-11-19T10:56:00.638Z,82.43
2022-11-19T10:58:33.960Z,82.53
2022-11-19T11:01:03.705Z,81.54
2022-11-19T11:03:52.505Z,83.25
2022-11-19T11:06:19.197Z,82.31
2022-11-19T11:08:54.341Z,82.30
2022-11-19T11:11:53.048Z,81.88
2022-11-19T11:14:41.529Z,81.16
2022-11-19T11:17:29.472Z,82.82
2022-11-19T11:20:11.031Z,81.79
2022-11-19T11:22:38.654Z,81.61
2022-11-19T11:25:20.810Z,82.11
2022-11-19T11:28:04.617Z,82.08
2022-11-19T11:30:31.507Z,81.23
2022-11-19T11:32:58.267Z,79.80
2022-11-19T11:35:34.175Z,79.00
2022-11-19T11:38:02.503Z,77.97
2022-11-19T11:40:30.357Z,77.60
2022-11-19T11:42:57.877Z,76.77
2022-11-19T11:45:32.445Z,76.26
2022-11-19T11:48:06.235Z,77.00
2022-11-19T11:50:33.395Z,76.70
2022-11-19T11:53:09.415Z,77.72
2022-11-19T11:55:38.625Z,78.22
2022-11-19T11:58:24.350Z,77.56
2022-11-19T12:00:55.443Z,76.90
2022-11-19T12:03:22.616Z,76.42
2022-11-19T12:06:12.081Z,77.62
2022-11-19T12:08:53.983Z,76.55
2022-11-19T12:11:58.297Z,77.72
2022-11-19T12:14:37.130Z,77.08
2022-11-19T12:17:31.922Z,77.46
2022-11-19T12:20:21.572Z,77.23
2022-11-19T12:23:13.818Z,77.22
2022-11-19T12:25:47.884Z,77.18
2022-11-19T12:29:09.027Z,78.62
2022-11-19T12:31:56.481Z,78.62
2022-11-19T12:34:29.013Z,77.19
2022-11-19T12:37:37.513Z,78.46
2022-11-19T12:40:54.850Z,79.08
2022-11-19T12:43:29.329Z,77.85
2022-11-19T12:46:15.415Z,77.58
2022-11-19T12:49:11.356Z,77.53
2022-11-19T12:51:52.402Z,77.20
2022-11-19T12:54:46.898Z,78.32
2022-11-19T12:57:52.513Z,79.77
2022-11-19T13:00:21.848Z,78.91
2022-11-19T13:03:12.431Z,78.73
2022-11-19T13:05:47.905Z,78.22
2022-11-19T13:08:31.407Z,78.79
2022-11-19T13:10:58.064Z,78.29
2022-11-19T13:13:29.472Z,77.92
2022-11-19T13:15:59.102Z,77.84
2022-11-19T13:18:31.139Z,77.58
2022-11-19T13:21:07.527Z,77.47
2022-11-19T13:23:42.196Z,77.68
2022-11-19T13:26:17.714Z,77.60
2022-11-19T13:29:08.710Z,77.98
2022-11-19T13:32:11.097Z,79.16
2022-11-19T13:34:47.353Z,78.16
2022-11-19T13:37:28.098Z,78.04
2022-11-19T13:40:03.092Z,77.99
2022-11-19T13:43:04.169Z,78.22
2022-11-19T13:45:39.465Z,78.60
2022-11-19T13:48:20.174Z,78.71
2022-11-19T13:50:50.530Z,78.73
2022-11-19T13:53:26.896Z,78.78
2022-11-19T13:55:58.333Z,78.69
2022-11-19T13:58:37.954Z,79.12
2022-11-19T14:01:08.549Z,79.25
2022-11-19T14:03:53.623Z,79.17
2022-11-19T14:06:42.101Z,79.26
2022-11-19T14:09:30.524Z,79.65
2022-11-19T14:12:09.055Z,79.93
2022-11-19T14:15:09.192Z,79.71
2022-11-19T14:18:04.378Z,81.82
2022-11-19T14:20:58.375Z,81.29
2022-11-19T14:24:02.568Z,81.43
2022-11-19T14:26:41.305Z,81.74
2022-11-19T14:29:26.463Z,82.17
2022-11-19T14:32:08.252Z,82.64
2022-11-19T14:34:38.795Z,82.38
2022-11-19T14:37:20.083Z,82.16
2022-11-19T14:39:59.157Z,82.24
2022-11-19T14:42:26.005Z,83.12
2022-11-19T14:45:02.918Z,83.30
2022-11-19T14:47:43.802Z,83.28
2022-11-19T14:50:28.292Z,83.77
2022-11-19T14:52:58.076Z,83.80
2022-11-19T14:55:27.988Z,84.37
2022-11-19T14:57:56.773Z,83.96
2022-11-19T15:00:27.433Z,83.95
2022-11-19T15:02:56.662Z,84.18
2022-11-19T15:05:27.175Z,84.46
2022-11-19T15:08:46.097Z,84.80
2022-11-19T15:11:14.648Z,84.96
2022-11-19T15:13:49.141Z,85.13
2022-11-19T15:16:27.600Z,85.82
2022-11-19T15:19:03.000Z,85.91
2022-11-19T15:21:45.153Z,85.99
2022-11-19T15:24:30.401Z,85.88
2022-11-19T15:27:26.011Z,85.88
2022-11-19T15:30:19.863Z,85.68
2022-11-19T15:33:17.085Z,85.83
2022-11-19T15:36:20.789Z,85.96
2022-11-19T15:38:57.807Z,85.87
2022-11-19T15:41:26.127Z,86.12
2022-11-19T15:43:59.881Z,86.11
2022-11-19T15:46:32.615Z,86.58
2022-11-19T15:49:39.690Z,86.84
2022-11-19T15:52:13.020Z,86.92
2022-11-19T15:54:43.802Z,87.24
2022-11-19T15:57:26.447Z,87.36
2022-11-19T16:00:00.058Z,87.38
2022-11-19T16:02:32.732Z,87.69
2022-11-19T16:04:59.721Z,87.56
2022-11-19T16:07:29.754Z,87.53
2022-11-19T16:09:58.554Z,87.48
2022-11-19T16:12:46.134Z,87.65
2022-11-19T16:15:43.847Z,87.64
2022-11-19T16:18:19.003Z,87.50
2022-11-19T16:20:51.640Z,87.54
2022-11-19T16:23:23.115Z,87.36
2022-11-19T16:25:50.447Z,87.48
2022-11-19T16:28:24.629Z,87.56
2022-11-19T16:31:13.223Z,87.85
2022-11-19T16:33:40.532Z,88.02
2022-11-19T16:36:18.271Z,88.04
2022-11-19T16:39:05.562Z,88.11
2022-11-19T16:41:52.343Z,88.24
2022-11-19T16:44:22.027Z,88.02
2022-11-19T16:46:49.608Z,88.12
2022-11-19T16:49:49.519Z,87.75
2022-11-19T16:52:35.628Z,87.67
2022-11-19T16:55:04.961Z,87.39
2022-11-19T16:57:32.575Z,87.45
2022-11-19T17:00:02.113Z,87.28
2022-11-19T17:02:36.349Z,87.40
2022-11-19T17:05:16.946Z,87.21
2022-11-19T17:08:05.006Z,87.49
2022-11-19T17:10:32.226Z,87.68
2022-11-19T17:13:13.873Z,87.86
2022-11-19T17:15:44.595Z,88.08
2022-11-19T17:18:20.393Z,88.42
2022-11-19T17:21:00.662Z,88.39
2022-11-19T17:23:29.001Z,89.25
2022-11-19T17:25:57.420Z,89.18
2022-11-19T17:28:41.099Z,88.95
2022-11-19T17:31:20.677Z,88.86
2022-11-19T17:33:51.668Z,89.11
2022-11-19T17:36:18.738Z,89.21
2022-11-19T17:38:45.631Z,89.31
2022-11-19T17:41:16.031Z,88.94
2022-11-19T17:44:01.456Z,89.19
2022-11-19T17:46:30.418Z,89.46
2022-11-19T17:48:57.463Z,89.45
2022-11-19T17:51:26.135Z,89.46
2022-11-19T17:53:53.462Z,89.29
2022-11-19T17:56:28.900Z,89.16
2022-11-19T17:58:56.251Z,89.69
2022-11-19T18:01:23.079Z,89.38
2022-11-19T18:03:50.045Z,89.33
2022-11-19T18:06:17.961Z,89.30
2022-11-19T18:08:45.394Z,89.37
2022-11-19T18:11:16.195Z,89.28
2022-11-19T18:13:44.327Z,89.30
2022-11-19T18:16:25.454Z,89.30
2022-11-19T18:18:52.468Z,89.58
2022-11-19T18:21:22.066Z,89.33
2022-11-19T18:23:50.997Z,89.52
2022-11-19T18:26:20.466Z,89.20
2022-11-19T18:28:49.056Z,89.56
2022-11-19T18:31:27.853Z,89.18
2022-11-19T18:33:56.089Z,89.43
2022-11-19T18:36:25.176Z,89.24
2022-11-19T18:38:53.000Z,89.40
2022-11-19T18:41:19.840Z,89.15
2022-11-19T18:44:05.476Z,88.98
2022-11-19T18:46:32.319Z,89.11
2022-11-19T18:48:59.885Z,89.15
2022-11-19T18:51:29.339Z,89.32
2022-11-19T18:53:56.044Z,89.34
2022-11-19T18:56:23.028Z,89.48
2022-11-19T18:58:49.844Z,89.84
2022-11-19T19:01:17.391Z,89.81
2022-11-19T19:03:44.645Z,89.85
2022-11-19T19:06:11.927Z,89.67
2022-11-19T19:08:38.688Z,89.60
2022-11-19T19:11:26.109Z,90.04
2022-11-19T19:13:53.108Z,90.16
2022-11-19T19:16:19.985Z,90.51
2022-11-19T19:18:47.129Z,90.64
2022-11-19T19:21:15.663Z,90.55
2022-11-19T19:23:42.841Z,90.59
2022-11-19T19:26:11.494Z,90.73
2022-11-19T19:28:38.865Z,90.77
2022-11-19T19:31:06.362Z,91.11
2022-11-19T19:33:33.606Z,90.78
2022-11-19T19:36:03.442Z,90.71
2022-11-19T19:38:30.234Z,91.00
2022-11-19T19:41:07.804Z,90.68
2022-11-19T19:43:34.645Z,91.13
2022-11-19T19:46:05.990Z,91.09
2022-11-19T19:48:32.831Z,91.41
2022-11-19T19:50:59.513Z,91.66
2022-11-19T19:53:26.292Z,91.65
2022-11-19T19:56:01.015Z,91.87
2022-11-19T19:58:28.300Z,91.69
2022-11-19T20:00:55.112Z,91.76
2022-11-19T20:03:25.809Z,91.74
2022-11-19T20:05:52.556Z,92.20
2022-11-19T20:08:19.273Z,91.91
2022-11-19T20:10:45.990Z,92.29
2022-11-19T20:13:27.616Z,92.03
2022-11-19T20:15:58.260Z,92.22
2022-11-19T20:18:25.549Z,92.33
2022-11-19T20:20:52.397Z,92.54
2022-11-19T20:23:19.308Z,92.54
2022-11-19T20:25:46.021Z,92.70
2022-11-19T20:28:12.820Z,92.59
2022-11-19T20:30:39.678Z,92.68
2022-11-19T20:33:06.394Z,92.59
2022-11-19T20:35:33.169Z,92.81
2022-11-19T20:38:03.435Z,92.82
2022-11-19T20:40:30.521Z,92.93
2022-11-19T20:43:16.060Z,92.85
2022-11-19T20:45:42.739Z,92.84
2022-11-19T20:48:09.490Z,92.74
2022-11-19T20:50:36.322Z,92.75
2022-11-19T20:53:03.165Z,92.84
2022-11-19T20:55:29.860Z,92.74
2022-11-19T20:57:56.725Z,92.58
2022-11-19T21:00:23.642Z,92.76
2022-11-19T21:02:50.348Z,92.90
2022-11-19T21:05:17.160Z,93.15
2022-11-19T21:07:43.929Z,93.23
2022-11-19T21:10:10.692Z,93.45
2022-11-19T21:12:57.411Z,93.70
2022-11-19T21:15:24.094Z,93.65
2022-11-19T21:17:50.784Z,93.66
2022-11-19T21:20:17.631Z,93.77
2022-11-19T21:22:48.105Z,93.70
2022-11-19T21:25:15.014Z,93.79
2022-11-19T21:27:42.083Z,93.74
2022-11-19T21:30:11.218Z,93.93
2022-11-19T21:32:38.411Z,93.91
2022-11-19T21:35:05.658Z,93.92
2022-11-19T21:37:32.422Z,93.72
2022-11-19T21:39:59.211Z,93.95
2022-11-19T21:42:25.983Z,93.84
2022-11-19T21:44:52.685Z,93.85
2022-11-19T21:47:19.380Z,93.63
2022-11-19T21:49:46.793Z,93.65
2022-11-19T21:52:13.498Z,93.75
2022-11-19T21:54:40.243Z,93.51
2022-11-19T21:57:06.984Z,93.46
2022-11-19T21:59:33.718Z,93.28
2022-11-19T22:02:00.517Z,93.23
2022-11-19T22:04:27.337Z,93.35
2022-11-19T22:06:54.043Z,93.23
2022-11-19T22:09:20.993Z,93.25
2022-11-19T22:11:47.916Z,93.24
2022-11-19T22:14:14.648Z,93.11
2022-11-19T22:16:41.419Z,93.41
2022-11-19T22:19:08.524Z,93.37
2022-11-19T22:21:35.923Z,93.35
2022-11-19T22:24:03.118Z,93.56
2022-11-19T22:26:30.600Z,93.55
2022-11-19T22:28:57.347Z,93.36
2022-11-19T22:31:25.446Z,93.18
2022-11-19T22:33:53.852Z,93.21
2022-11-19T22:36:22.443Z,93.28
2022-11-19T22:38:50.981Z,93.35
2022-11-19T22:41:19.923Z,93.38
2022-11-19T22:43:47.038Z,93.29
2022-11-19T22:46:14.581Z,93.37
2022-11-19T22:48:41.643Z,93.29
2022-11-19T22:51:12.859Z,93.38
2022-11-19T22:53:39.998Z,93.31
2022-11-19T22:56:10.056Z,93.26
2022-11-19T22:58:38.192Z,93.31
2022-11-19T23:01:07.040Z,93.53
2022-11-19T23:03:34.109Z,93.39
2022-11-19T23:06:00.805Z,93.46
2022-11-19T23:08:27.735Z,93.37
2022-11-19T23:11:02.665Z,93.22
2022-11-19T23:13:32.292Z,93.37
2022-11-19T23:16:25.092Z,93.24
2022-11-19T23:18:53.241Z,93.31
2022-11-19T23:21:23.001Z,93.33
2022-11-19T23:23:50.306Z,93.24
2022-11-19T23:26:19.966Z,93.20
2022-11-19T23:28:46.739Z,93.25
2022-11-19T23:31:19.198Z,93.22
2022-11-19T23:33:47.207Z,93.26
2022-11-19T23:36:16.600Z,93.35
2022-11-19T23:38:45.910Z,93.42
2022-11-19T23:41:14.590Z,93.18
2022-11-19T23:43:41.962Z,93.17
2022-11-19T23:46:11.545Z,93.23
2022-11-19T23:48:39.787Z,93.43
2022-11-19T23:51:18.178Z,93.36
2022-11-19T23:53:47.205Z,93.25
2022-11-19T23:56:15.723Z,93.40
2022-11-19T23:58:42.727Z,93.28
